createdAt,value
2023-03-03T00:00:57.135Z,1.30
2023-03-03T00:03:58.880Z,1.30
2023-03-03T00:07:00.058Z,1.30
2023-03-03T00:10:01.262Z,1.40
2023-03-03T00:13:03.108Z,1.40
2023-03-03T00:16:31.383Z,1.30
2023-03-03T00:19:41.383Z,1.30
2023-03-03T00:22:42.742Z,1.30
2023-03-03T00:25:46.493Z,1.30
2023-03-03T00:28:53.041Z,1.30
2023-03-03T00:31:54.504Z,1.40
2023-03-03T00:35:01.791Z,1.40
2023-03-03T00:38:17.350Z,1.30
2023-03-03T00:41:27.165Z,1.40
2023-03-03T00:44:46.063Z,1.60
2023-03-03T00:47:47.818Z,1.60
2023-03-03T00:50:50.791Z,1.70
2023-03-03T00:53:51.760Z,1.60
2023-03-03T00:56:52.826Z,1.60
2023-03-03T00:59:54.556Z,1.60
2023-03-03T01:02:55.398Z,1.60
2023-03-03T01:05:56.809Z,1.50
2023-03-03T01:08:58.458Z,1.50
2023-03-03T01:12:00.376Z,1.40
2023-03-03T01:15:01.563Z,1.50
2023-03-03T01:18:02.898Z,1.50
2023-03-03T01:21:05.697Z,1.50
2023-03-03T01:24:06.659Z,1.60
2023-03-03T01:27:07.575Z,1.50
2023-03-03T01:30:10.093Z,1.60
2023-03-03T01:33:11.709Z,1.60
2023-03-03T01:36:12.979Z,1.60
2023-03-03T01:39:13.869Z,1.60
2023-03-03T01:42:15.951Z,1.60
2023-03-03T01:45:31.714Z,1.50
2023-03-03T01:48:44.875Z,1.50
2023-03-03T01:51:57.134Z,1.50
2023-03-03T01:55:04.716Z,1.50
2023-03-03T01:58:31.252Z,1.40
2023-03-03T02:01:33.778Z,1.50
2023-03-03T02:04:36.147Z,1.50
2023-03-03T02:07:38.596Z,1.50
2023-03-03T02:10:40.973Z,1.50
2023-03-03T02:13:41.957Z,1.60
2023-03-03T02:16:43.330Z,1.60
2023-03-03T02:20:07.472Z,1.60
2023-03-03T02:23:23.434Z,1.70
2023-03-03T02:26:30.128Z,1.70
2023-03-03T02:29:36.007Z,1.70
2023-03-03T02:32:39.392Z,1.60
2023-03-03T02:35:42.414Z,1.60
2023-03-03T02:39:00.137Z,1.60
2023-03-03T02:42:20.423Z,1.70
2023-03-03T02:45:25.473Z,1.70
2023-03-03T02:48:26.691Z,1.70
2023-03-03T02:51:27.837Z,1.70
2023-03-03T02:54:31.336Z,1.70
2023-03-03T02:57:33.397Z,1.70
2023-03-03T03:00:34.610Z,1.70
2023-03-03T03:03:35.955Z,1.70
2023-03-03T03:06:39.087Z,1.60
2023-03-03T03:09:40.414Z,1.60
2023-03-03T03:12:41.727Z,1.60
2023-03-03T03:15:47.088Z,1.60
2023-03-03T03:18:48.438Z,1.60
2023-03-03T03:21:50.199Z,1.60
2023-03-03T03:24:51.966Z,1.50
2023-03-03T03:27:52.638Z,1.50
2023-03-03T03:30:54.720Z,1.50
2023-03-03T03:33:56.845Z,1.60
2023-03-03T03:36:58.573Z,1.50
2023-03-03T03:40:02.045Z,1.60
2023-03-03T03:43:04.343Z,1.60
2023-03-03T03:46:06.028Z,1.50
2023-03-03T03:49:07.975Z,1.50
2023-03-03T03:52:09.217Z,1.50
2023-03-03T03:55:10.806Z,1.50
2023-03-03T03:58:18.891Z,1.40
2023-03-03T04:01:26.590Z,1.50
2023-03-03T04:04:28.347Z,1.50
2023-03-03T04:07:30.186Z,1.50
2023-03-03T04:10:31.632Z,1.50
2023-03-03T04:13:35.392Z,1.50
2023-03-03T04:16:39.900Z,1.50
2023-03-03T04:19:41.068Z,1.50
2023-03-03T04:22:44.006Z,1.50
2023-03-03T04:25:48.142Z,1.40
2023-03-03T04:28:49.709Z,1.50
2023-03-03T04:31:51.311Z,1.50
2023-03-03T04:35:05.773Z,1.50
2023-03-03T04:38:09.354Z,1.40
2023-03-03T04:41:11.521Z,1.50
2023-03-03T04:44:13.850Z,1.40
2023-03-03T04:47:15.120Z,1.40
2023-03-03T04:50:16.739Z,1.40
2023-03-03T04:53:18.004Z,1.40
2023-03-03T04:56:18.902Z,1.40
2023-03-03T04:59:19.798Z,1.40
2023-03-03T05:02:20.781Z,1.30
2023-03-03T05:05:22.601Z,1.30
2023-03-03T05:08:24.078Z,1.30
2023-03-03T05:11:25.510Z,1.30
2023-03-03T05:14:28.114Z,1.30
2023-03-03T05:17:29.242Z,1.30
2023-03-03T05:20:29.966Z,1.30
2023-03-03T05:23:31.557Z,1.30
2023-03-03T05:26:32.551Z,1.20
2023-03-03T05:29:33.670Z,1.30
2023-03-03T05:32:35.079Z,1.30
2023-03-03T05:35:36.479Z,1.20
2023-03-03T05:38:37.741Z,1.20
2023-03-03T05:41:38.989Z,1.20
2023-03-03T05:44:39.970Z,1.20
2023-03-03T05:47:40.956Z,1.20
2023-03-03T05:50:41.880Z,1.20
2023-03-03T05:53:42.986Z,1.20
2023-03-03T05:56:43.875Z,1.10
2023-03-03T05:59:44.762Z,1.10
2023-03-03T06:02:45.963Z,1.20
2023-03-03T06:05:47.257Z,1.10
2023-03-03T06:08:48.080Z,1.10
2023-03-03T06:11:48.862Z,1.10
2023-03-03T06:14:49.994Z,1.10
2023-03-03T06:17:51.483Z,1.20
2023-03-03T06:20:55.094Z,1.20
2023-03-03T06:23:55.899Z,1.20
2023-03-03T06:26:58.751Z,1.20
2023-03-03T06:29:59.787Z,1.20
2023-03-03T06:33:00.633Z,1.20
2023-03-03T06:36:03.560Z,1.20
2023-03-03T06:39:06.343Z,1.20
2023-03-03T06:42:09.691Z,1.30
2023-03-03T06:45:11.590Z,1.20
2023-03-03T06:48:12.788Z,1.20
2023-03-03T06:51:36.017Z,1.20
2023-03-03T06:54:36.970Z,1.30
2023-03-03T06:57:38.377Z,1.30
2023-03-03T07:00:39.147Z,1.30
2023-03-03T07:03:40.037Z,1.40
2023-03-03T07:06:40.880Z,1.40
2023-03-03T07:09:46.216Z,1.30
2023-03-03T07:12:47.410Z,1.30
2023-03-03T07:15:52.361Z,1.50
2023-03-03T07:19:05.464Z,1.50
2023-03-03T07:22:22.673Z,1.40
2023-03-03T07:25:35.700Z,1.50
2023-03-03T07:28:36.298Z,1.50
2023-03-03T07:31:44.623Z,1.50
2023-03-03T07:34:50.894Z,1.50
2023-03-03T07:37:52.321Z,1.50
2023-03-03T07:40:57.530Z,1.50
2023-03-03T07:44:18.051Z,1.50
2023-03-03T07:47:26.421Z,1.50
2023-03-03T07:50:27.194Z,1.60
2023-03-03T07:53:34.949Z,1.60
2023-03-03T07:56:36.984Z,1.70
2023-03-03T07:59:46.040Z,1.80
2023-03-03T08:03:05.420Z,1.80
2023-03-03T08:06:35.525Z,1.80
2023-03-03T08:09:51.238Z,1.90
2023-03-03T08:12:52.349Z,1.90
2023-03-03T08:16:09.099Z,1.90
2023-03-03T08:19:16.438Z,2.00
2023-03-03T08:22:37.795Z,1.90
2023-03-03T08:25:39.865Z,2.10
2023-03-03T08:28:40.684Z,2.20
2023-03-03T08:31:42.294Z,2.20
2023-03-03T08:34:43.221Z,2.20
2023-03-03T08:37:44.396Z,2.20
2023-03-03T08:40:47.221Z,2.10
2023-03-03T08:43:48.496Z,2.30
2023-03-03T08:46:50.086Z,2.30
2023-03-03T08:49:51.061Z,2.30
2023-03-03T08:52:52.404Z,2.40
2023-03-03T08:55:53.701Z,2.50
2023-03-03T08:59:02.067Z,2.50
2023-03-03T09:02:04.025Z,2.40
2023-03-03T09:05:06.368Z,2.50
2023-03-03T09:08:09.683Z,2.50
2023-03-03T09:11:14.178Z,2.70
2023-03-03T09:14:18.964Z,2.70
2023-03-03T09:17:29.360Z,2.60
2023-03-03T09:20:45.099Z,2.50
2023-03-03T09:23:58.063Z,2.70
2023-03-03T09:26:59.862Z,2.60
2023-03-03T09:30:22.977Z,2.70
2023-03-03T09:33:24.190Z,2.70
2023-03-03T09:36:38.693Z,2.70
2023-03-03T09:39:39.701Z,2.70
2023-03-03T09:43:04.313Z,2.90
2023-03-03T09:46:36.792Z,3.00
2023-03-03T09:50:13.600Z,3.30
2023-03-03T09:53:32.026Z,3.70
2023-03-03T09:57:05.676Z,3.40
2023-03-03T10:01:00.711Z,3.90
2023-03-03T10:04:11.585Z,4.10
2023-03-03T10:07:42.364Z,4.20
2023-03-03T10:11:08.099Z,4.50
2023-03-03T10:14:28.944Z,4.40
2023-03-03T10:17:42.885Z,4.80
2023-03-03T10:21:16.765Z,4.50
2023-03-03T10:24:23.258Z,4.10
2023-03-03T10:27:47.437Z,4.00
2023-03-03T10:31:50.200Z,4.40
2023-03-03T10:35:03.330Z,4.50
2023-03-03T10:38:20.151Z,4.80
2023-03-03T10:41:35.757Z,5.30
2023-03-03T10:44:57.925Z,5.40
2023-03-03T10:48:36.083Z,5.20
2023-03-03T10:52:03.258Z,5.00
2023-03-03T10:55:13.076Z,5.00
2023-03-03T10:58:56.070Z,5.80
2023-03-03T11:02:11.923Z,5.60
2023-03-03T11:05:52.227Z,5.30
2023-03-03T11:09:11.143Z,5.50
2023-03-03T11:13:03.580Z,5.80
2023-03-03T11:16:16.572Z,6.00
2023-03-03T11:19:57.726Z,5.00
2023-03-03T11:23:53.522Z,5.80
2023-03-03T11:27:46.758Z,4.90
2023-03-03T11:31:31.700Z,5.00
2023-03-03T11:34:58.245Z,5.70
2023-03-03T11:38:36.042Z,6.20
2023-03-03T11:41:50.867Z,6.60
2023-03-03T11:45:06.526Z,6.70
2023-03-03T11:48:37.513Z,6.90
2023-03-03T11:51:54.143Z,6.90
2023-03-03T11:55:21.318Z,7.00
2023-03-03T11:58:44.721Z,6.30
2023-03-03T12:02:20.834Z,6.70
2023-03-03T12:06:02.875Z,7.50
2023-03-03T12:09:09.598Z,7.50
2023-03-03T12:12:44.581Z,7.80
2023-03-03T12:16:33.846Z,7.50
2023-03-03T12:20:19.483Z,7.20
2023-03-03T12:23:52.611Z,7.10
2023-03-03T12:27:23.170Z,7.70
2023-03-03T12:30:43.948Z,8.10
2023-03-03T12:34:03.232Z,7.00
2023-03-03T12:40:30.514Z,7.00
2023-03-03T12:43:55.989Z,7.30
2023-03-03T12:47:23.180Z,7.50
2023-03-03T12:50:55.932Z,8.00
2023-03-03T12:54:00.134Z,7.90
2023-03-03T12:57:38.655Z,7.50
2023-03-03T13:01:06.477Z,7.90
2023-03-03T13:04:25.568Z,8.40
2023-03-03T13:07:53.602Z,8.90
2023-03-03T13:11:09.997Z,10.00
2023-03-03T13:14:35.861Z,10.80
2023-03-03T13:18:28.920Z,12.00
2023-03-03T13:21:59.888Z,15.20
2023-03-03T13:25:06.654Z,16.40
2023-03-03T13:28:23.518Z,16.80
2023-03-03T13:31:37.640Z,15.90
2023-03-03T13:35:25.860Z,15.70
2023-03-03T13:39:06.279Z,14.10
2023-03-03T13:42:39.639Z,16.20
2023-03-03T13:46:23.460Z,17.90
2023-03-03T13:49:55.469Z,16.00
2023-03-03T13:53:02.511Z,13.80
2023-03-03T13:56:29.880Z,15.90
2023-03-03T13:59:41.778Z,17.00
2023-03-03T14:03:04.250Z,15.80
2023-03-03T14:06:27.363Z,14.90
2023-03-03T14:09:44.180Z,13.30
2023-03-03T14:13:11.038Z,12.70
2023-03-03T14:16:35.611Z,13.70
2023-03-03T14:19:49.282Z,14.80
2023-03-03T14:23:13.169Z,13.70
2023-03-03T14:26:14.742Z,12.40
2023-03-03T14:29:35.941Z,12.60
2023-03-03T14:32:45.326Z,12.50
2023-03-03T14:36:05.268Z,12.10
2023-03-03T14:39:37.384Z,13.90
2023-03-03T14:42:54.742Z,14.70
2023-03-03T14:45:56.675Z,14.90
2023-03-03T14:53:49.185Z,12.80
2023-03-03T14:57:12.298Z,11.10
2023-03-03T15:00:13.716Z,9.70
2023-03-03T15:03:27.172Z,9.60
2023-03-03T15:06:48.704Z,8.90
2023-03-03T15:09:51.615Z,7.60
2023-03-03T15:12:53.004Z,7.40
2023-03-03T15:16:02.324Z,8.10
2023-03-03T15:19:21.653Z,8.10
2023-03-03T15:22:47.600Z,8.60
2023-03-03T15:26:19.769Z,8.50
2023-03-03T15:29:41.927Z,8.40
2023-03-03T15:33:17.578Z,8.80
2023-03-03T15:36:31.500Z,8.30
2023-03-03T15:40:16.887Z,7.10
2023-03-03T15:43:57.506Z,7.30
2023-03-03T15:47:21.468Z,6.90
2023-03-03T15:51:09.623Z,7.00
2023-03-03T15:54:26.481Z,6.80
2023-03-03T15:57:55.378Z,6.70
2023-03-03T16:01:22.705Z,6.80
2023-03-03T16:04:36.230Z,7.10
2023-03-03T16:08:02.163Z,7.70
2023-03-03T16:11:28.445Z,8.80
2023-03-03T16:15:01.332Z,9.10
2023-03-03T16:18:36.745Z,9.30
2023-03-03T16:22:14.803Z,8.10
2023-03-03T16:25:33.771Z,7.10
2023-03-03T16:29:25.520Z,6.20
2023-03-03T16:32:37.925Z,6.00
2023-03-03T16:35:50.608Z,6.10
2023-03-03T16:39:33.310Z,5.90
2023-03-03T16:42:35.107Z,5.90
2023-03-03T16:45:39.453Z,5.80
2023-03-03T16:49:14.811Z,5.80
2023-03-03T16:52:35.159Z,5.70
2023-03-03T16:56:00.038Z,5.70
2023-03-03T16:59:06.677Z,5.60
2023-03-03T17:02:16.662Z,5.40
2023-03-03T17:05:42.578Z,5.30
2023-03-03T17:09:01.170Z,5.30
2023-03-03T17:12:19.600Z,5.30
2023-03-03T17:15:45.859Z,5.20
2023-03-03T17:19:21.626Z,5.20
2023-03-03T17:23:02.291Z,5.20
2023-03-03T17:26:23.028Z,5.00
2023-03-03T17:30:23.090Z,5.00
2023-03-03T17:33:46.270Z,4.90
2023-03-03T17:37:00.973Z,4.90
2023-03-03T17:40:49.632Z,4.80
2023-03-03T17:44:25.038Z,4.80
2023-03-03T17:47:57.730Z,4.70
2023-03-03T17:51:36.490Z,4.70
2023-03-03T17:54:55.796Z,4.70
2023-03-03T17:58:27.723Z,4.60
2023-03-03T18:02:11.223Z,4.60
2023-03-03T18:05:27.759Z,4.60
2023-03-03T18:08:40.839Z,4.50
2023-03-03T18:12:00.229Z,4.50
2023-03-03T18:15:20.979Z,4.50
2023-03-03T18:18:57.070Z,4.50
2023-03-03T18:22:17.514Z,4.40
2023-03-03T18:25:46.520Z,4.40
2023-03-03T18:28:50.676Z,4.40
2023-03-03T18:31:57.492Z,4.20
2023-03-03T18:35:41.420Z,4.20
2023-03-03T18:38:48.714Z,4.20
2023-03-03T18:42:26.163Z,4.30
2023-03-03T18:45:28.410Z,4.10
2023-03-03T18:49:03.689Z,4.20
2023-03-03T18:52:26.896Z,4.30
2023-03-03T18:55:27.664Z,4.30
2023-03-03T18:58:43.538Z,4.30
2023-03-03T19:01:48.203Z,4.20
2023-03-03T19:04:56.067Z,4.10
2023-03-03T19:08:16.865Z,4.10
2023-03-03T19:11:49.712Z,4.20
2023-03-03T19:14:50.711Z,4.10
2023-03-03T19:17:57.803Z,4.00
2023-03-03T19:21:11.323Z,4.10
2023-03-03T19:24:36.561Z,4.10
2023-03-03T19:28:06.222Z,4.10
2023-03-03T19:31:37.355Z,4.10
2023-03-03T19:35:18.423Z,4.20
2023-03-03T19:39:01.082Z,4.00
2023-03-03T19:42:05.875Z,3.90
2023-03-03T19:45:57.810Z,3.80
2023-03-03T19:49:43.631Z,3.70
2023-03-03T19:53:09.082Z,3.60
2023-03-03T19:56:33.063Z,3.50
2023-03-03T19:59:53.033Z,3.30
2023-03-03T20:03:51.948Z,3.20
2023-03-03T20:07:24.296Z,3.20
2023-03-03T20:10:37.135Z,3.10
2023-03-03T20:13:50.799Z,2.90
2023-03-03T20:16:59.603Z,2.90
2023-03-03T20:20:39.915Z,2.90
2023-03-03T20:24:15.352Z,2.90
2023-03-03T20:27:28.547Z,2.90
2023-03-03T20:30:53.939Z,3.00
2023-03-03T20:34:19.291Z,3.00
2023-03-03T20:37:49.776Z,2.80
2023-03-03T20:41:38.668Z,2.80
2023-03-03T20:44:56.575Z,2.80
2023-03-03T20:48:23.253Z,2.80
2023-03-03T20:52:06.454Z,2.60
2023-03-03T20:55:23.211Z,2.50
2023-03-03T20:59:07.617Z,2.40
2023-03-03T21:02:25.704Z,2.50
2023-03-03T21:05:27.134Z,2.40
2023-03-03T21:08:53.590Z,2.50
2023-03-03T21:11:55.231Z,2.60
2023-03-03T21:15:11.662Z,2.60
2023-03-03T21:18:25.171Z,2.60
2023-03-03T21:21:30.413Z,2.60
2023-03-03T21:24:49.293Z,2.60
2023-03-03T21:27:50.460Z,2.50
2023-03-03T21:31:13.366Z,2.30
2023-03-03T21:34:39.563Z,2.30
2023-03-03T21:37:54.283Z,2.30
2023-03-03T21:41:02.932Z,2.30
2023-03-03T21:44:46.734Z,2.30
2023-03-03T21:47:48.653Z,2.30
2023-03-03T21:50:50.031Z,2.10
2023-03-03T21:53:51.049Z,2.00
2023-03-03T21:56:52.489Z,1.80
2023-03-03T21:59:53.614Z,1.90
2023-03-03T22:02:55.500Z,1.80
2023-03-03T22:05:56.716Z,1.70
2023-03-03T22:08:57.536Z,1.80
2023-03-03T22:11:58.307Z,1.80
2023-03-03T22:14:59.054Z,1.90
2023-03-03T22:18:00.928Z,1.70
2023-03-03T22:21:01.890Z,1.60
2023-03-03T22:24:02.910Z,1.50
2023-03-03T22:27:04.190Z,1.40
2023-03-03T22:30:06.475Z,1.30
2023-03-03T22:33:07.504Z,1.40
2023-03-03T22:36:09.188Z,1.40
2023-03-03T22:39:10.697Z,1.60
2023-03-03T22:42:11.506Z,1.70
2023-03-03T22:45:13.338Z,1.80
2023-03-03T22:48:14.481Z,1.80
2023-03-03T22:51:15.654Z,1.60
2023-03-03T22:54:16.422Z,1.50
2023-03-03T22:57:17.197Z,1.40
2023-03-03T23:00:19.250Z,1.40
2023-03-03T23:03:21.304Z,1.40
2023-03-03T23:06:22.218Z,1.30
2023-03-03T23:09:23.007Z,1.30
2023-03-03T23:12:24.207Z,1.40
2023-03-03T23:15:25.137Z,1.40
2023-03-03T23:18:27.175Z,1.40
2023-03-03T23:21:28.274Z,1.30
2023-03-03T23:24:29.102Z,1.20
2023-03-03T23:27:30.290Z,1.20
2023-03-03T23:30:31.431Z,1.20
2023-03-03T23:33:32.144Z,1.10
2023-03-03T23:36:32.986Z,1.00
2023-03-03T23:39:34.070Z,1.10
2023-03-03T23:42:35.322Z,1.40
2023-03-03T23:45:36.193Z,1.10
2023-03-03T23:48:37.431Z,0.80
2023-03-03T23:51:38.612Z,0.60
2023-03-03T23:54:39.264Z,0.50
2023-03-03T23:57:40.557Z,0.40
